sensor_id;sensor_type;location;lat;lon;timestamp;P1;durP1;ratioP1;P2;durP2;ratioP2
20294;SDS011;10306;52.128;5.208;2022-08-19T00:01:09;4.60;;;4.40;;
20294;SDS011;10306;52.128;5.208;2022-08-19T00:03:35;5.00;;;4.70;;
20294;SDS011;10306;52.128;5.208;2022-08-19T00:06:01;4.80;;;4.50;;
20294;SDS011;10306;52.128;5.208;2022-08-19T00:08:28;4.97;;;4.57;;
20294;SDS011;10306;52.128;5.208;2022-08-19T00:10:54;5.77;;;4.40;;
20294;SDS011;10306;52.128;5.208;2022-08-19T00:13:20;4.93;;;4.20;;
20294;SDS011;10306;52.128;5.208;2022-08-19T00:15:46;5.07;;;4.67;;
20294;SDS011;10306;52.128;5.208;2022-08-19T00:18:11;4.63;;;4.43;;
20294;SDS011;10306;52.128;5.208;2022-08-19T00:20:37;4.37;;;4.17;;
20294;SDS011;10306;52.128;5.208;2022-08-19T00:23:05;5.33;;;5.03;;
20294;SDS011;10306;52.128;5.208;2022-08-19T00:25:31;4.83;;;4.57;;
20294;SDS011;10306;52.128;5.208;2022-08-19T00:27:58;4.63;;;4.43;;
20294;SDS011;10306;52.128;5.208;2022-08-19T00:30:24;4.67;;;4.37;;
20294;SDS011;10306;52.128;5.208;2022-08-19T00:32:52;4.60;;;4.30;;
20294;SDS011;10306;52.128;5.208;2022-08-19T00:35:20;5.17;;;4.87;;
20294;SDS011;10306;52.128;5.208;2022-08-19T00:37:46;4.90;;;4.70;;
20294;SDS011;10306;52.128;5.208;2022-08-19T00:40:13;4.90;;;4.53;;
20294;SDS011;10306;52.128;5.208;2022-08-19T00:42:39;4.53;;;4.23;;
20294;SDS011;10306;52.128;5.208;2022-08-19T00:45:11;4.97;;;4.63;;
20294;SDS011;10306;52.128;5.208;2022-08-19T00:47:38;5.23;;;4.87;;
20294;SDS011;10306;52.128;5.208;2022-08-19T00:50:04;5.00;;;4.70;;
20294;SDS011;10306;52.128;5.208;2022-08-19T00:52:32;5.20;;;4.80;;
20294;SDS011;10306;52.128;5.208;2022-08-19T00:54:59;4.70;;;4.40;;
20294;SDS011;10306;52.128;5.208;2022-08-19T00:57:35;4.10;;;3.90;;
20294;SDS011;10306;52.128;5.208;2022-08-19T01:00:03;4.20;;;3.90;;
20294;SDS011;10306;52.128;5.208;2022-08-19T01:02:30;4.27;;;3.93;;
20294;SDS011;10306;52.128;5.208;2022-08-19T01:04:59;4.47;;;4.07;;
20294;SDS011;10306;52.128;5.208;2022-08-19T01:07:25;4.63;;;4.33;;
20294;SDS011;10306;52.128;5.208;2022-08-19T01:09:51;5.27;;;4.00;;
20294;SDS011;10306;52.128;5.208;2022-08-19T01:12:17;4.60;;;4.20;;
20294;SDS011;10306;52.128;5.208;2022-08-19T01:14:44;4.50;;;4.30;;
20294;SDS011;10306;52.128;5.208;2022-08-19T01:17:10;4.40;;;4.00;;
20294;SDS011;10306;52.128;5.208;2022-08-19T01:19:37;4.23;;;4.03;;
20294;SDS011;10306;52.128;5.208;2022-08-19T01:24:30;7.47;;;4.30;;
20294;SDS011;10306;52.128;5.208;2022-08-19T01:26:56;4.63;;;4.33;;
20294;SDS011;10306;52.128;5.208;2022-08-19T01:29:23;4.80;;;4.50;;
20294;SDS011;10306;52.128;5.208;2022-08-19T01:31:49;4.27;;;3.97;;
20294;SDS011;10306;52.128;5.208;2022-08-19T01:34:17;4.60;;;4.23;;
20294;SDS011;10306;52.128;5.208;2022-08-19T01:36:44;4.30;;;4.10;;
20294;SDS011;10306;52.128;5.208;2022-08-19T01:39:11;4.40;;;4.20;;
20294;SDS011;10306;52.128;5.208;2022-08-19T01:41:37;4.80;;;4.50;;
20294;SDS011;10306;52.128;5.208;2022-08-19T01:44:03;4.87;;;4.57;;
20294;SDS011;10306;52.128;5.208;2022-08-19T01:46:30;4.40;;;4.20;;
20294;SDS011;10306;52.128;5.208;2022-08-19T01:48:57;5.13;;;4.57;;
20294;SDS011;10306;52.128;5.208;2022-08-19T01:51:22;4.97;;;4.73;;
20294;SDS011;10306;52.128;5.208;2022-08-19T01:53:49;4.80;;;4.57;;
20294;SDS011;10306;52.128;5.208;2022-08-19T01:56:15;5.27;;;4.87;;
20294;SDS011;10306;52.128;5.208;2022-08-19T01:58:44;4.93;;;4.60;;
20294;SDS011;10306;52.128;5.208;2022-08-19T02:01:11;4.57;;;4.37;;
20294;SDS011;10306;52.128;5.208;2022-08-19T02:03:38;5.00;;;4.70;;
20294;SDS011;10306;52.128;5.208;2022-08-19T02:06:04;6.57;;;4.77;;
20294;SDS011;10306;52.128;5.208;2022-08-19T02:08:31;4.80;;;4.50;;
20294;SDS011;10306;52.128;5.208;2022-08-19T02:10:57;4.73;;;4.10;;
20294;SDS011;10306;52.128;5.208;2022-08-19T02:13:24;4.70;;;4.40;;
20294;SDS011;10306;52.128;5.208;2022-08-19T02:15:50;5.13;;;4.60;;
20294;SDS011;10306;52.128;5.208;2022-08-19T02:18:16;4.70;;;4.40;;
20294;SDS011;10306;52.128;5.208;2022-08-19T02:20:42;4.87;;;4.57;;
20294;SDS011;10306;52.128;5.208;2022-08-19T02:23:09;4.90;;;4.60;;
20294;SDS011;10306;52.128;5.208;2022-08-19T02:25:35;5.40;;;4.90;;
20294;SDS011;10306;52.128;5.208;2022-08-19T02:28:01;5.17;;;4.87;;
20294;SDS011;10306;52.128;5.208;2022-08-19T02:30:27;5.20;;;4.80;;
20294;SDS011;10306;52.128;5.208;2022-08-19T02:32:53;5.03;;;4.73;;
20294;SDS011;10306;52.128;5.208;2022-08-19T02:35:20;4.40;;;4.10;;
20294;SDS011;10306;52.128;5.208;2022-08-19T02:37:46;4.30;;;4.10;;
20294;SDS011;10306;52.128;5.208;2022-08-19T02:40:31;4.50;;;4.30;;
20294;SDS011;10306;52.128;5.208;2022-08-19T02:43:04;5.83;;;5.27;;
20294;SDS011;10306;52.128;5.208;2022-08-19T02:45:32;7.23;;;4.77;;
20294;SDS011;10306;52.128;5.208;2022-08-19T02:47:59;5.10;;;4.60;;
20294;SDS011;10306;52.128;5.208;2022-08-19T02:50:25;4.97;;;4.67;;
20294;SDS011;10306;52.128;5.208;2022-08-19T02:52:51;6.00;;;5.47;;
20294;SDS011;10306;52.128;5.208;2022-08-19T02:55:17;6.20;;;5.67;;
20294;SDS011;10306;52.128;5.208;2022-08-19T02:57:43;5.83;;;5.43;;
20294;SDS011;10306;52.128;5.208;2022-08-19T03:00:09;5.83;;;5.47;;
20294;SDS011;10306;52.128;5.208;2022-08-19T03:02:39;5.50;;;5.20;;
20294;SDS011;10306;52.128;5.208;2022-08-19T03:05:06;5.67;;;5.37;;
20294;SDS011;10306;52.128;5.208;2022-08-19T03:07:32;5.07;;;4.63;;
20294;SDS011;10306;52.128;5.208;2022-08-19T03:09:58;5.20;;;4.80;;
20294;SDS011;10306;52.128;5.208;2022-08-19T03:12:24;4.27;;;4.07;;
20294;SDS011;10306;52.128;5.208;2022-08-19T03:14:50;4.87;;;4.57;;
20294;SDS011;10306;52.128;5.208;2022-08-19T03:17:17;4.93;;;4.63;;
20294;SDS011;10306;52.128;5.208;2022-08-19T03:19:43;9.67;;;4.40;;
20294;SDS011;10306;52.128;5.208;2022-08-19T03:22:09;4.97;;;4.67;;
20294;SDS011;10306;52.128;5.208;2022-08-19T03:24:35;5.90;;;5.30;;
20294;SDS011;10306;52.128;5.208;2022-08-19T03:27:02;5.00;;;4.70;;
20294;SDS011;10306;52.128;5.208;2022-08-19T03:29:30;4.90;;;4.57;;
20294;SDS011;10306;52.128;5.208;2022-08-19T03:31:57;4.70;;;4.33;;
20294;SDS011;10306;52.128;5.208;2022-08-19T03:34:26;4.87;;;4.57;;
20294;SDS011;10306;52.128;5.208;2022-08-19T03:36:57;5.10;;;4.70;;
20294;SDS011;10306;52.128;5.208;2022-08-19T03:39:24;5.87;;;5.47;;
20294;SDS011;10306;52.128;5.208;2022-08-19T03:41:50;6.17;;;5.67;;
20294;SDS011;10306;52.128;5.208;2022-08-19T03:44:18;5.77;;;5.37;;
20294;SDS011;10306;52.128;5.208;2022-08-19T03:46:50;5.40;;;5.10;;
20294;SDS011;10306;52.128;5.208;2022-08-19T03:49:17;5.87;;;5.30;;
20294;SDS011;10306;52.128;5.208;2022-08-19T03:51:43;5.60;;;5.20;;
20294;SDS011;10306;52.128;5.208;2022-08-19T03:54:10;6.33;;;5.83;;
20294;SDS011;10306;52.128;5.208;2022-08-19T03:56:38;5.60;;;5.20;;
20294;SDS011;10306;52.128;5.208;2022-08-19T03:59:05;8.57;;;5.70;;
20294;SDS011;10306;52.128;5.208;2022-08-19T04:01:31;6.13;;;5.73;;
20294;SDS011;10306;52.128;5.208;2022-08-19T04:03:57;5.47;;;5.07;;
20294;SDS011;10306;52.128;5.208;2022-08-19T04:06:25;6.20;;;5.60;;
20294;SDS011;10306;52.128;5.208;2022-08-19T04:08:52;5.97;;;5.47;;
20294;SDS011;10306;52.128;5.208;2022-08-19T04:11:22;6.17;;;5.70;;
20294;SDS011;10306;52.128;5.208;2022-08-19T04:13:49;6.67;;;6.10;;
20294;SDS011;10306;52.128;5.208;2022-08-19T04:16:16;7.30;;;6.60;;
20294;SDS011;10306;52.128;5.208;2022-08-19T04:18:42;7.30;;;6.67;;
20294;SDS011;10306;52.128;5.208;2022-08-19T04:21:14;8.70;;;6.60;;
20294;SDS011;10306;52.128;5.208;2022-08-19T04:23:41;6.87;;;6.37;;
20294;SDS011;10306;52.128;5.208;2022-08-19T04:26:07;6.00;;;5.47;;
20294;SDS011;10306;52.128;5.208;2022-08-19T04:28:37;7.30;;;6.60;;
20294;SDS011;10306;52.128;5.208;2022-08-19T04:31:04;6.83;;;6.20;;
20294;SDS011;10306;52.128;5.208;2022-08-19T04:33:30;6.10;;;5.60;;
20294;SDS011;10306;52.128;5.208;2022-08-19T04:35:56;6.70;;;6.03;;
20294;SDS011;10306;52.128;5.208;2022-08-19T04:38:23;5.80;;;5.20;;
20294;SDS011;10306;52.128;5.208;2022-08-19T04:40:49;6.10;;;5.50;;
20294;SDS011;10306;52.128;5.208;2022-08-19T04:43:35;6.00;;;5.30;;
20294;SDS011;10306;52.128;5.208;2022-08-19T04:46:05;8.97;;;6.33;;
20294;SDS011;10306;52.128;5.208;2022-08-19T04:48:31;6.47;;;5.87;;
20294;SDS011;10306;52.128;5.208;2022-08-19T04:50:58;6.83;;;5.73;;
20294;SDS011;10306;52.128;5.208;2022-08-19T04:53:25;6.27;;;5.77;;
20294;SDS011;10306;52.128;5.208;2022-08-19T04:55:51;6.53;;;5.83;;
20294;SDS011;10306;52.128;5.208;2022-08-19T04:58:17;6.67;;;6.07;;
20294;SDS011;10306;52.128;5.208;2022-08-19T05:00:43;6.87;;;6.17;;
20294;SDS011;10306;52.128;5.208;2022-08-19T05:03:09;8.97;;;6.43;;
20294;SDS011;10306;52.128;5.208;2022-08-19T05:05:42;7.73;;;6.90;;
20294;SDS011;10306;52.128;5.208;2022-08-19T05:08:08;6.33;;;5.83;;
20294;SDS011;10306;52.128;5.208;2022-08-19T05:10:35;5.80;;;5.30;;
20294;SDS011;10306;52.128;5.208;2022-08-19T05:13:01;6.90;;;6.30;;
20294;SDS011;10306;52.128;5.208;2022-08-19T05:15:27;6.67;;;5.97;;
20294;SDS011;10306;52.128;5.208;2022-08-19T05:17:53;5.67;;;5.17;;
20294;SDS011;10306;52.128;5.208;2022-08-19T05:20:38;6.83;;;6.13;;
20294;SDS011;10306;52.128;5.208;2022-08-19T05:23:23;6.30;;;5.80;;
20294;SDS011;10306;52.128;5.208;2022-08-19T05:25:50;7.03;;;5.77;;
20294;SDS011;10306;52.128;5.208;2022-08-19T05:28:16;6.03;;;5.53;;
20294;SDS011;10306;52.128;5.208;2022-08-19T05:30:43;7.17;;;6.53;;
20294;SDS011;10306;52.128;5.208;2022-08-19T05:33:09;7.27;;;6.67;;
20294;SDS011;10306;52.128;5.208;2022-08-19T05:35:37;6.10;;;5.60;;
20294;SDS011;10306;52.128;5.208;2022-08-19T05:38:04;6.87;;;5.67;;
20294;SDS011;10306;52.128;5.208;2022-08-19T05:40:33;6.87;;;5.80;;
20294;SDS011;10306;52.128;5.208;2022-08-19T05:42:59;6.40;;;5.27;;
20294;SDS011;10306;52.128;5.208;2022-08-19T05:45:25;6.23;;;5.63;;
20294;SDS011;10306;52.128;5.208;2022-08-19T05:47:51;6.63;;;5.93;;
20294;SDS011;10306;52.128;5.208;2022-08-19T05:50:17;5.10;;;4.73;;
20294;SDS011;10306;52.128;5.208;2022-08-19T05:52:43;4.77;;;4.47;;
20294;SDS011;10306;52.128;5.208;2022-08-19T05:55:09;6.13;;;5.60;;
20294;SDS011;10306;52.128;5.208;2022-08-19T05:57:35;6.97;;;6.37;;
20294;SDS011;10306;52.128;5.208;2022-08-19T06:00:03;6.13;;;5.67;;
20294;SDS011;10306;52.128;5.208;2022-08-19T06:02:33;7.67;;;5.70;;
20294;SDS011;10306;52.128;5.208;2022-08-19T06:05:00;5.97;;;5.50;;
20294;SDS011;10306;52.128;5.208;2022-08-19T06:07:27;6.73;;;6.10;;
20294;SDS011;10306;52.128;5.208;2022-08-19T06:09:53;7.30;;;6.57;;
20294;SDS011;10306;52.128;5.208;2022-08-19T06:12:19;9.90;;;7.80;;
20294;SDS011;10306;52.128;5.208;2022-08-19T06:14:56;13.40;;;10.00;;
20294;SDS011;10306;52.128;5.208;2022-08-19T06:17:22;9.90;;;7.73;;
20294;SDS011;10306;52.128;5.208;2022-08-19T06:19:50;16.87;;;10.53;;
20294;SDS011;10306;52.128;5.208;2022-08-19T06:22:16;13.63;;;10.03;;
20294;SDS011;10306;52.128;5.208;2022-08-19T06:24:42;13.07;;;8.93;;
20294;SDS011;10306;52.128;5.208;2022-08-19T06:27:08;17.30;;;10.63;;
20294;SDS011;10306;52.128;5.208;2022-08-19T06:29:34;31.00;;;15.57;;
20294;SDS011;10306;52.128;5.208;2022-08-19T06:32:01;37.00;;;16.77;;
20294;SDS011;10306;52.128;5.208;2022-08-19T06:34:28;51.33;;;22.10;;
20294;SDS011;10306;52.128;5.208;2022-08-19T06:36:55;48.80;;;20.97;;
20294;SDS011;10306;52.128;5.208;2022-08-19T06:39:22;60.10;;;23.27;;
20294;SDS011;10306;52.128;5.208;2022-08-19T06:41:50;56.53;;;22.80;;
20294;SDS011;10306;52.128;5.208;2022-08-19T06:44:20;64.67;;;24.50;;
20294;SDS011;10306;52.128;5.208;2022-08-19T06:46:46;63.53;;;26.07;;
20294;SDS011;10306;52.128;5.208;2022-08-19T06:49:13;57.73;;;23.67;;
20294;SDS011;10306;52.128;5.208;2022-08-19T06:51:40;66.53;;;25.90;;
20294;SDS011;10306;52.128;5.208;2022-08-19T06:54:06;60.63;;;25.33;;
20294;SDS011;10306;52.128;5.208;2022-08-19T06:56:32;64.17;;;25.33;;
20294;SDS011;10306;52.128;5.208;2022-08-19T06:59:09;58.37;;;25.17;;
20294;SDS011;10306;52.128;5.208;2022-08-19T07:01:36;64.03;;;26.17;;
20294;SDS011;10306;52.128;5.208;2022-08-19T07:04:03;60.17;;;25.97;;
20294;SDS011;10306;52.128;5.208;2022-08-19T07:06:29;69.43;;;26.50;;
20294;SDS011;10306;52.128;5.208;2022-08-19T07:08:56;59.07;;;25.03;;
20294;SDS011;10306;52.128;5.208;2022-08-19T07:11:23;55.47;;;25.53;;
20294;SDS011;10306;52.128;5.208;2022-08-19T07:13:50;53.27;;;23.27;;
20294;SDS011;10306;52.128;5.208;2022-08-19T07:16:17;56.17;;;23.77;;
20294;SDS011;10306;52.128;5.208;2022-08-19T07:18:47;58.70;;;24.80;;
20294;SDS011;10306;52.128;5.208;2022-08-19T07:21:20;58.47;;;25.87;;
20294;SDS011;10306;52.128;5.208;2022-08-19T07:23:47;55.63;;;24.03;;
20294;SDS011;10306;52.128;5.208;2022-08-19T07:28:40;46.30;;;22.50;;
20294;SDS011;10306;52.128;5.208;2022-08-19T07:31:08;48.07;;;24.07;;
20294;SDS011;10306;52.128;5.208;2022-08-19T07:33:35;52.80;;;23.90;;
20294;SDS011;10306;52.128;5.208;2022-08-19T07:36:02;44.53;;;23.70;;
20294;SDS011;10306;52.128;5.208;2022-08-19T07:38:28;46.67;;;23.40;;
20294;SDS011;10306;52.128;5.208;2022-08-19T07:40:54;48.20;;;23.70;;
20294;SDS011;10306;52.128;5.208;2022-08-19T07:43:20;47.63;;;24.03;;
20294;SDS011;10306;52.128;5.208;2022-08-19T07:45:51;46.50;;;24.33;;
20294;SDS011;10306;52.128;5.208;2022-08-19T07:48:21;45.70;;;23.97;;
20294;SDS011;10306;52.128;5.208;2022-08-19T07:50:49;50.77;;;23.37;;
20294;SDS011;10306;52.128;5.208;2022-08-19T07:53:15;46.00;;;23.27;;
20294;SDS011;10306;52.128;5.208;2022-08-19T07:55:41;48.60;;;24.60;;
20294;SDS011;10306;52.128;5.208;2022-08-19T07:58:07;41.20;;;23.20;;
20294;SDS011;10306;52.128;5.208;2022-08-19T08:00:33;42.33;;;23.67;;
20294;SDS011;10306;52.128;5.208;2022-08-19T08:03:00;37.97;;;22.90;;
20294;SDS011;10306;52.128;5.208;2022-08-19T08:05:26;38.13;;;22.87;;
20294;SDS011;10306;52.128;5.208;2022-08-19T08:08:11;46.10;;;24.60;;
20294;SDS011;10306;52.128;5.208;2022-08-19T08:10:56;45.37;;;23.87;;
20294;SDS011;10306;52.128;5.208;2022-08-19T08:13:22;42.50;;;21.83;;
20294;SDS011;10306;52.128;5.208;2022-08-19T08:15:48;36.83;;;23.20;;
20294;SDS011;10306;52.128;5.208;2022-08-19T08:18:14;35.30;;;21.90;;
20294;SDS011;10306;52.128;5.208;2022-08-19T08:20:40;43.63;;;23.30;;
20294;SDS011;10306;52.128;5.208;2022-08-19T08:23:06;39.30;;;22.53;;
20294;SDS011;10306;52.128;5.208;2022-08-19T08:25:48;38.03;;;22.43;;
20294;SDS011;10306;52.128;5.208;2022-08-19T08:28:14;40.43;;;22.93;;
20294;SDS011;10306;52.128;5.208;2022-08-19T08:30:40;34.77;;;21.13;;
20294;SDS011;10306;52.128;5.208;2022-08-19T08:33:07;40.00;;;23.70;;
20294;SDS011;10306;52.128;5.208;2022-08-19T08:35:33;38.78;;;22.20;;
20294;SDS011;10306;52.128;5.208;2022-08-19T08:37:59;40.70;;;23.23;;
20294;SDS011;10306;52.128;5.208;2022-08-19T08:40:28;37.20;;;22.80;;
20294;SDS011;10306;52.128;5.208;2022-08-19T08:45:21;37.22;;;21.85;;
20294;SDS011;10306;52.128;5.208;2022-08-19T08:47:48;34.35;;;21.02;;
20294;SDS011;10306;52.128;5.208;2022-08-19T08:50:35;36.80;;;23.17;;
20294;SDS011;10306;52.128;5.208;2022-08-19T08:53:02;31.95;;;20.65;;
20294;SDS011;10306;52.128;5.208;2022-08-19T08:55:30;31.10;;;20.47;;
20294;SDS011;10306;52.128;5.208;2022-08-19T08:58:06;29.00;;;20.87;;
20294;SDS011;10306;52.128;5.208;2022-08-19T09:00:34;29.73;;;19.73;;
20294;SDS011;10306;52.128;5.208;2022-08-19T09:03:02;28.98;;;20.55;;
20294;SDS011;10306;52.128;5.208;2022-08-19T09:06:03;27.45;;;19.42;;
20294;SDS011;10306;52.128;5.208;2022-08-19T09:08:27;27.65;;;19.88;;
20294;SDS011;10306;52.128;5.208;2022-08-19T09:10:56;25.47;;;19.47;;
20294;SDS011;10306;52.128;5.208;2022-08-19T09:15:58;22.85;;;17.70;;
20294;SDS011;10306;52.128;5.208;2022-08-19T09:18:37;25.88;;;17.92;;
20294;SDS011;10306;52.128;5.208;2022-08-19T09:21:03;28.65;;;17.85;;
20294;SDS011;10306;52.128;5.208;2022-08-19T09:23:29;21.85;;;16.95;;
20294;SDS011;10306;52.128;5.208;2022-08-19T09:25:55;23.73;;;15.73;;
20294;SDS011;10306;52.128;5.208;2022-08-19T09:28:21;22.73;;;16.15;;
20294;SDS011;10306;52.128;5.208;2022-08-19T09:30:47;19.08;;;15.75;;
20294;SDS011;10306;52.128;5.208;2022-08-19T09:33:13;20.40;;;15.48;;
20294;SDS011;10306;52.128;5.208;2022-08-19T09:35:40;21.50;;;16.20;;
20294;SDS011;10306;52.128;5.208;2022-08-19T09:38:06;22.52;;;16.33;;
20294;SDS011;10306;52.128;5.208;2022-08-19T09:40:33;22.20;;;15.88;;
20294;SDS011;10306;52.128;5.208;2022-08-19T09:42:59;20.48;;;16.85;;
20294;SDS011;10306;52.128;5.208;2022-08-19T09:45:27;24.15;;;16.45;;
20294;SDS011;10306;52.128;5.208;2022-08-19T09:47:53;24.25;;;17.15;;
20294;SDS011;10306;52.128;5.208;2022-08-19T09:50:19;21.85;;;17.42;;
20294;SDS011;10306;52.128;5.208;2022-08-19T09:52:45;23.73;;;16.85;;
20294;SDS011;10306;52.128;5.208;2022-08-19T09:55:11;24.40;;;17.08;;
20294;SDS011;10306;52.128;5.208;2022-08-19T09:57:38;21.45;;;16.58;;
20294;SDS011;10306;52.128;5.208;2022-08-19T10:00:05;24.00;;;16.58;;
20294;SDS011;10306;52.128;5.208;2022-08-19T10:02:31;21.33;;;15.65;;
20294;SDS011;10306;52.128;5.208;2022-08-19T10:04:57;17.95;;;15.68;;
20294;SDS011;10306;52.128;5.208;2022-08-19T10:07:42;23.23;;;16.42;;
20294;SDS011;10306;52.128;5.208;2022-08-19T10:10:08;22.08;;;17.05;;
20294;SDS011;10306;52.128;5.208;2022-08-19T10:12:35;19.95;;;15.85;;
20294;SDS011;10306;52.128;5.208;2022-08-19T10:15:02;20.83;;;16.25;;
20294;SDS011;10306;52.128;5.208;2022-08-19T10:17:28;20.88;;;17.58;;
20294;SDS011;10306;52.128;5.208;2022-08-19T10:19:54;22.58;;;17.60;;
20294;SDS011;10306;52.128;5.208;2022-08-19T10:22:20;23.63;;;16.77;;
20294;SDS011;10306;52.128;5.208;2022-08-19T10:24:46;20.77;;;15.82;;
20294;SDS011;10306;52.128;5.208;2022-08-19T10:27:12;20.95;;;17.73;;
20294;SDS011;10306;52.128;5.208;2022-08-19T10:29:38;25.85;;;18.58;;
20294;SDS011;10306;52.128;5.208;2022-08-19T10:32:05;21.00;;;17.25;;
20294;SDS011;10306;52.128;5.208;2022-08-19T10:34:33;22.30;;;18.63;;
20294;SDS011;10306;52.128;5.208;2022-08-19T10:37:01;20.05;;;17.92;;
20294;SDS011;10306;52.128;5.208;2022-08-19T10:39:28;18.65;;;16.65;;
20294;SDS011;10306;52.128;5.208;2022-08-19T10:41:54;20.58;;;16.92;;
20294;SDS011;10306;52.128;5.208;2022-08-19T10:44:21;18.60;;;16.60;;
20294;SDS011;10306;52.128;5.208;2022-08-19T10:46:48;19.95;;;17.05;;
20294;SDS011;10306;52.128;5.208;2022-08-19T10:49:14;21.27;;;17.38;;
20294;SDS011;10306;52.128;5.208;2022-08-19T10:51:41;22.55;;;17.33;;
20294;SDS011;10306;52.128;5.208;2022-08-19T10:54:25;18.58;;;16.60;;
20294;SDS011;10306;52.128;5.208;2022-08-19T10:57:11;18.00;;;15.52;;
20294;SDS011;10306;52.128;5.208;2022-08-19T10:59:37;21.13;;;18.05;;
20294;SDS011;10306;52.128;5.208;2022-08-19T11:02:05;20.27;;;17.02;;
20294;SDS011;10306;52.128;5.208;2022-08-19T11:04:34;22.30;;;17.58;;
20294;SDS011;10306;52.128;5.208;2022-08-19T11:07:00;17.88;;;15.32;;
20294;SDS011;10306;52.128;5.208;2022-08-19T11:09:26;21.65;;;16.20;;
20294;SDS011;10306;52.128;5.208;2022-08-19T11:11:53;23.08;;;16.17;;
20294;SDS011;10306;52.128;5.208;2022-08-19T11:14:20;17.40;;;15.52;;
20294;SDS011;10306;52.128;5.208;2022-08-19T11:16:47;22.58;;;15.82;;
20294;SDS011;10306;52.128;5.208;2022-08-19T11:19:14;24.58;;;17.90;;
20294;SDS011;10306;52.128;5.208;2022-08-19T11:21:44;22.55;;;18.02;;
20294;SDS011;10306;52.128;5.208;2022-08-19T11:24:12;23.05;;;16.58;;
20294;SDS011;10306;52.128;5.208;2022-08-19T11:26:39;20.80;;;17.13;;
20294;SDS011;10306;52.128;5.208;2022-08-19T11:29:05;19.30;;;16.77;;
20294;SDS011;10306;52.128;5.208;2022-08-19T11:31:36;24.23;;;17.95;;
20294;SDS011;10306;52.128;5.208;2022-08-19T11:34:04;20.88;;;16.85;;
20294;SDS011;10306;52.128;5.208;2022-08-19T11:36:30;19.67;;;16.85;;
20294;SDS011;10306;52.128;5.208;2022-08-19T11:38:57;25.30;;;18.30;;
20294;SDS011;10306;52.128;5.208;2022-08-19T11:41:23;22.98;;;17.33;;
20294;SDS011;10306;52.128;5.208;2022-08-19T11:43:50;22.75;;;17.52;;
20294;SDS011;10306;52.128;5.208;2022-08-19T11:46:17;22.98;;;17.75;;
20294;SDS011;10306;52.128;5.208;2022-08-19T11:48:43;22.23;;;17.55;;
20294;SDS011;10306;52.128;5.208;2022-08-19T11:51:15;22.83;;;18.00;;
20294;SDS011;10306;52.128;5.208;2022-08-19T11:53:42;21.00;;;15.50;;
20294;SDS011;10306;52.128;5.208;2022-08-19T11:56:08;24.13;;;17.77;;
20294;SDS011;10306;52.128;5.208;2022-08-19T11:58:34;24.38;;;17.85;;
20294;SDS011;10306;52.128;5.208;2022-08-19T12:01:00;21.13;;;17.02;;
20294;SDS011;10306;52.128;5.208;2022-08-19T12:03:26;23.15;;;17.73;;
20294;SDS011;10306;52.128;5.208;2022-08-19T12:05:53;20.33;;;16.10;;
20294;SDS011;10306;52.128;5.208;2022-08-19T12:08:19;17.45;;;14.00;;
20294;SDS011;10306;52.128;5.208;2022-08-19T12:10:45;15.02;;;13.48;;
20294;SDS011;10306;52.128;5.208;2022-08-19T12:13:12;14.85;;;13.35;;
20294;SDS011;10306;52.128;5.208;2022-08-19T12:15:44;15.50;;;13.98;;
20294;SDS011;10306;52.128;5.208;2022-08-19T12:18:11;17.38;;;14.20;;
20294;SDS011;10306;52.128;5.208;2022-08-19T12:20:38;15.18;;;13.48;;
20294;SDS011;10306;52.128;5.208;2022-08-19T12:23:06;15.52;;;14.05;;
20294;SDS011;10306;52.128;5.208;2022-08-19T12:25:34;15.60;;;14.02;;
20294;SDS011;10306;52.128;5.208;2022-08-19T12:28:00;13.93;;;12.57;;
20294;SDS011;10306;52.128;5.208;2022-08-19T12:30:26;14.85;;;13.35;;
20294;SDS011;10306;52.128;5.208;2022-08-19T12:32:53;14.90;;;13.68;;
20294;SDS011;10306;52.128;5.208;2022-08-19T12:35:19;14.10;;;12.88;;
20294;SDS011;10306;52.128;5.208;2022-08-19T12:37:45;15.60;;;13.90;;
20294;SDS011;10306;52.128;5.208;2022-08-19T12:40:11;14.15;;;12.82;;
20294;SDS011;10306;52.128;5.208;2022-08-19T12:42:38;14.13;;;12.75;;
20294;SDS011;10306;52.128;5.208;2022-08-19T12:45:10;14.32;;;12.90;;
20294;SDS011;10306;52.128;5.208;2022-08-19T12:47:36;14.93;;;12.38;;
20294;SDS011;10306;52.128;5.208;2022-08-19T12:50:03;12.68;;;11.38;;
20294;SDS011;10306;52.128;5.208;2022-08-19T12:52:33;10.95;;;9.88;;
20294;SDS011;10306;52.128;5.208;2022-08-19T12:55:00;12.10;;;10.93;;
20294;SDS011;10306;52.128;5.208;2022-08-19T12:57:26;12.30;;;11.32;;
20294;SDS011;10306;52.128;5.208;2022-08-19T12:59:53;14.13;;;12.70;;
20294;SDS011;10306;52.128;5.208;2022-08-19T13:02:19;14.70;;;13.02;;
20294;SDS011;10306;52.128;5.208;2022-08-19T13:04:46;14.55;;;13.15;;
20294;SDS011;10306;52.128;5.208;2022-08-19T13:07:12;13.82;;;12.13;;
20294;SDS011;10306;52.128;5.208;2022-08-19T13:09:38;12.93;;;11.65;;
20294;SDS011;10306;52.128;5.208;2022-08-19T13:12:07;10.50;;;9.43;;
20294;SDS011;10306;52.128;5.208;2022-08-19T13:14:37;9.25;;;8.48;;
20294;SDS011;10306;52.128;5.208;2022-08-19T13:17:05;8.93;;;8.18;;
20294;SDS011;10306;52.128;5.208;2022-08-19T13:19:31;7.93;;;7.10;;
20294;SDS011;10306;52.128;5.208;2022-08-19T13:21:57;6.95;;;6.55;;
20294;SDS011;10306;52.128;5.208;2022-08-19T13:24:23;9.20;;;6.65;;
20294;SDS011;10306;52.128;5.208;2022-08-19T13:26:49;6.72;;;6.20;;
20294;SDS011;10306;52.128;5.208;2022-08-19T13:29:15;6.88;;;6.40;;
20294;SDS011;10306;52.128;5.208;2022-08-19T13:32:00;6.38;;;5.95;;
20294;SDS011;10306;52.128;5.208;2022-08-19T13:34:45;7.25;;;6.18;;
20294;SDS011;10306;52.128;5.208;2022-08-19T13:37:11;6.40;;;5.80;;
20294;SDS011;10306;52.128;5.208;2022-08-19T13:39:37;6.15;;;5.72;;
20294;SDS011;10306;52.128;5.208;2022-08-19T13:42:03;6.82;;;6.32;;
20294;SDS011;10306;52.128;5.208;2022-08-19T13:44:30;5.68;;;5.18;;
20294;SDS011;10306;52.128;5.208;2022-08-19T13:47:00;6.35;;;5.80;;
20294;SDS011;10306;52.128;5.208;2022-08-19T13:49:31;6.82;;;6.28;;
20294;SDS011;10306;52.128;5.208;2022-08-19T13:51:57;7.65;;;6.05;;
20294;SDS011;10306;52.128;5.208;2022-08-19T13:54:23;6.43;;;5.32;;
20294;SDS011;10306;52.128;5.208;2022-08-19T13:56:49;6.00;;;5.50;;
20294;SDS011;10306;52.128;5.208;2022-08-19T13:59:15;5.40;;;5.00;;
20294;SDS011;10306;52.128;5.208;2022-08-19T14:01:42;5.75;;;5.35;;
20294;SDS011;10306;52.128;5.208;2022-08-19T14:04:08;6.55;;;6.05;;
20294;SDS011;10306;52.128;5.208;2022-08-19T14:06:34;5.78;;;5.38;;
20294;SDS011;10306;52.128;5.208;2022-08-19T14:09:00;5.55;;;5.25;;
20294;SDS011;10306;52.128;5.208;2022-08-19T14:11:27;5.28;;;4.97;;
20294;SDS011;10306;52.128;5.208;2022-08-19T14:13:53;5.10;;;4.60;;
20294;SDS011;10306;52.128;5.208;2022-08-19T14:16:19;4.55;;;4.25;;
20294;SDS011;10306;52.128;5.208;2022-08-19T14:18:46;5.05;;;4.70;;
20294;SDS011;10306;52.128;5.208;2022-08-19T14:21:17;5.40;;;5.00;;
20294;SDS011;10306;52.128;5.208;2022-08-19T14:23:43;5.20;;;4.93;;
20294;SDS011;10306;52.128;5.208;2022-08-19T14:26:11;5.15;;;4.85;;
20294;SDS011;10306;52.128;5.208;2022-08-19T14:28:37;5.18;;;4.78;;
20294;SDS011;10306;52.128;5.208;2022-08-19T14:31:05;5.20;;;4.80;;
20294;SDS011;10306;52.128;5.208;2022-08-19T14:33:31;5.50;;;5.20;;
20294;SDS011;10306;52.128;5.208;2022-08-19T14:35:57;5.05;;;4.75;;
20294;SDS011;10306;52.128;5.208;2022-08-19T14:38:25;5.35;;;5.05;;
20294;SDS011;10306;52.128;5.208;2022-08-19T14:40:51;5.25;;;4.80;;
20294;SDS011;10306;52.128;5.208;2022-08-19T14:43:17;7.38;;;5.43;;
20294;SDS011;10306;52.128;5.208;2022-08-19T14:45:43;5.65;;;5.18;;
20294;SDS011;10306;52.128;5.208;2022-08-19T14:48:09;4.65;;;4.40;;